Time;durP1;ratioP1;P1;durP2;ratioP2;P2;SDS_P1;SDS_P2;PMS_P1;PMS_P2;Temp;Humidity;BMP_temperature;BMP_pressure;BME280_temperature;BME280_humidity;BME280_pressure;Samples;Min_cycle;Max_cycle;Signal;HPM_P1;HPM_P2
2021/08/14 00:00:38;;;;;;;;;;;21.40;80.40;;;;;;4360642;32;43057;-84
2021/08/14 00:03:05;;;;;;;;;;;21.40;80.30;;;;;;4347272;32;45020;-84
2021/08/14 00:05:35;;;;;;;;;;;21.40;80.40;;;;;;4347303;32;45860;-84
2021/08/14 00:08:14;;;;;;;;;;;21.40;80.70;;;;;;4360702;32;43415;-84
2021/08/14 00:10:46;;;;;;;;;;;21.30;80.40;;;;;;4347500;32;45837;-84
2021/08/14 00:13:18;;;;;;;;;;;21.30;80.30;;;;;;4360957;32;43473;-84
2021/08/14 00:15:54;;;;;;;;;;;21.30;80.30;;;;;;4347420;32;43151;-84
2021/08/14 00:18:32;;;;;;;;;;;21.30;80.50;;;;;;4347410;32;42759;-84
2021/08/14 00:21:08;;;;;;;;;;;21.20;80.40;;;;;;4347663;32;43858;-84
2021/08/14 00:23:41;;;;;;;;;;;21.20;80.40;;;;;;4360347;32;43496;-84
2021/08/14 00:26:12;;;;;;;;;;;21.20;80.40;;;;;;4347205;32;43542;-84
2021/08/14 00:28:41;;;;;;;;;;;21.20;80.60;;;;;;4347194;32;42943;-84
2021/08/14 00:31:13;;;;;;;;;;;21.20;80.60;;;;;;4360608;32;44041;-84
2021/08/14 00:33:49;;;;;;;;;;;21.20;80.60;;;;;;4348322;32;20465;-84
2021/08/14 00:36:21;;;;;;;;;;;21.20;80.60;;;;;;4346814;32;45169;-84
2021/08/14 00:38:56;;;;;;;;;;;21.20;80.70;;;;;;4347211;32;44047;-84
2021/08/14 00:41:34;;;;;;;;;;;21.10;80.50;;;;;;4347180;32;44053;-84
2021/08/14 00:44:10;;;;;;;;;;;21.10;80.60;;;;;;4346792;32;42739;-83
2021/08/14 00:46:45;;;;;;;;;;;21.10;80.60;;;;;;4360537;32;43969;-83
2021/08/14 00:49:12;;;;;;;;;;;21.10;80.60;;;;;;4360605;32;43068;-84
2021/08/14 00:51:47;;;;;;;;;;;21.10;80.70;;;;;;4346719;32;43267;-83
2021/08/14 00:54:26;;;;;;;;;;;21.00;80.40;;;;;;4347113;32;43924;-84
2021/08/14 00:57:01;;;;;;;;;;;21.00;80.40;;;;;;4346361;32;44966;-83
2021/08/14 00:59:36;;;;;;;;;;;21.00;80.60;;;;;;4360360;32;43478;-84
2021/08/14 01:02:15;;;;;;;;;;;21.00;80.70;;;;;;4346635;32;45746;-84
2021/08/14 01:04:56;;;;;;;;;;;21.00;80.70;;;;;;4361229;32;19993;-84
2021/08/14 01:07:31;;;;;;;;;;;21.00;80.70;;;;;;4360200;32;44793;-84
2021/08/14 01:10:06;;;;;;;;;;;20.90;80.80;;;;;;4360508;32;43927;-84
2021/08/14 01:12:45;;;;;;;;;;;20.90;80.70;;;;;;4360202;32;44584;-84
2021/08/14 01:15:12;;;;;;;;;;;20.90;80.90;;;;;;4346452;32;43969;-84
2021/08/14 01:17:47;;;;;;;;;;;20.90;80.80;;;;;;4346873;32;44062;-84
2021/08/14 01:20:20;;;;;;;;;;;20.90;80.60;;;;;;4359992;32;45992;-84
2021/08/14 01:22:54;;;;;;;;;;;20.90;80.40;;;;;;4360118;32;45705;-84
2021/08/14 01:25:32;;;;;;;;;;;20.90;80.40;;;;;;4346683;33;45349;-83
2021/08/14 01:28:07;;;;;;;;;;;20.90;80.40;;;;;;4346579;33;44953;-84
2021/08/14 01:30:43;;;;;;;;;;;20.90;80.40;;;;;;4359992;33;44115;-84
2021/08/14 01:33:21;;;;;;;;;;;20.80;80.50;;;;;;4347190;33;45047;-84
2021/08/14 01:35:57;;;;;;;;;;;20.80;80.50;;;;;;4346453;33;43539;-84
2021/08/14 01:38:27;;;;;;;;;;;20.80;80.70;;;;;;4346646;33;42954;-84
2021/08/14 01:41:01;;;;;;;;;;;20.80;80.70;;;;;;4359962;33;44448;-84
2021/08/14 01:43:51;;;;;;;;;;;20.80;80.90;;;;;;4359566;33;43489;-84
2021/08/14 01:46:26;;;;;;;;;;;20.80;80.90;;;;;;4359913;32;43845;-84
2021/08/14 01:48:59;;;;;;;;;;;20.80;80.90;;;;;;4348877;32;43024;-84
2021/08/14 01:51:35;;;;;;;;;;;20.70;80.90;;;;;;4349685;32;45800;-84
2021/08/14 01:54:13;;;;;;;;;;;20.80;81.00;;;;;;4349915;32;43685;-84
2021/08/14 01:56:49;;;;;;;;;;;20.70;80.90;;;;;;4349676;32;44186;-84
2021/08/14 01:59:26;;;;;;;;;;;20.70;81.00;;;;;;4362859;32;45793;-84
2021/08/14 02:02:02;;;;;;;;;;;20.70;81.00;;;;;;4362546;32;45735;-84
2021/08/14 02:04:40;;;;;;;;;;;20.70;80.80;;;;;;4349207;32;44536;-84
2021/08/14 02:07:07;;;;;;;;;;;20.60;80.70;;;;;;4349747;32;44084;-84
2021/08/14 02:09:39;;;;;;;;;;;20.60;80.50;;;;;;4349124;32;44467;-84
2021/08/14 02:12:11;;;;;;;;;;;20.60;80.70;;;;;;4362609;32;42906;-84
2021/08/14 02:14:46;;;;;;;;;;;20.60;80.70;;;;;;4349208;32;44544;-84
2021/08/14 02:17:21;;;;;;;;;;;20.60;80.90;;;;;;4362389;32;42307;-83
2021/08/14 02:19:59;;;;;;;;;;;20.50;80.80;;;;;;4349258;32;43304;-84
2021/08/14 02:22:37;;;;;;;;;;;20.50;80.70;;;;;;4349144;32;43131;-84
2021/08/14 02:25:08;;;;;;;;;;;20.50;80.80;;;;;;4362341;32;44193;-84
2021/08/14 02:27:43;;;;;;;;;;;20.50;80.90;;;;;;4349074;32;44033;-84
2021/08/14 02:30:15;;;;;;;;;;;20.50;81.00;;;;;;4348952;32;44707;-84
2021/08/14 02:32:47;;;;;;;;;;;20.50;81.10;;;;;;4349419;32;43873;-84
2021/08/14 02:35:23;;;;;;;;;;;20.50;81.10;;;;;;4349124;32;44009;-83
2021/08/14 02:37:59;;;;;;;;;;;20.50;81.00;;;;;;4349314;32;19993;-84
2021/08/14 02:40:34;;;;;;;;;;;20.40;81.00;;;;;;4362269;32;43143;-83
2021/08/14 02:43:12;;;;;;;;;;;20.40;81.10;;;;;;4362365;32;43498;-83
2021/08/14 02:45:44;;;;;;;;;;;20.40;81.20;;;;;;4348243;32;45803;-84
2021/08/14 02:48:22;;;;;;;;;;;20.40;81.10;;;;;;4348643;32;43511;-84
2021/08/14 02:50:54;;;;;;;;;;;20.40;81.20;;;;;;4362186;32;44018;-84
2021/08/14 02:53:31;;;;;;;;;;;20.40;81.20;;;;;;4362200;32;44827;-84
2021/08/14 02:56:01;;;;;;;;;;;20.30;81.20;;;;;;4348656;32;43209;-84
2021/08/14 02:58:36;;;;;;;;;;;20.40;81.40;;;;;;4347912;32;42214;-83
2021/08/14 03:01:09;;;;;;;;;;;20.40;81.50;;;;;;4361932;32;44029;-83
2021/08/14 03:03:47;;;;;;;;;;;20.30;81.40;;;;;;4348509;32;44098;-84
2021/08/14 03:06:23;;;;;;;;;;;20.30;81.40;;;;;;4348376;32;43893;-83
2021/08/14 03:08:55;;;;;;;;;;;20.30;81.40;;;;;;4362220;32;20410;-83
2021/08/14 03:11:30;;;;;;;;;;;20.30;81.50;;;;;;4348525;32;46013;-83
2021/08/14 03:14:08;;;;;;;;;;;20.30;81.30;;;;;;4361895;32;43902;-83
2021/08/14 03:16:43;;;;;;;;;;;20.30;81.20;;;;;;4361660;32;42946;-84
2021/08/14 03:19:10;;;;;;;;;;;20.20;81.10;;;;;;4348463;32;44636;-84
2021/08/14 03:21:45;;;;;;;;;;;20.20;80.90;;;;;;4347964;32;45075;-83
2021/08/14 03:24:23;;;;;;;;;;;20.20;80.80;;;;;;4361619;32;44713;-83
2021/08/14 03:26:55;;;;;;;;;;;20.20;80.90;;;;;;4348299;32;44870;-83
2021/08/14 03:29:27;;;;;;;;;;;20.10;80.60;;;;;;4348170;32;45233;-83
2021/08/14 03:32:02;;;;;;;;;;;20.10;80.70;;;;;;4361548;32;41777;-83
2021/08/14 03:34:37;;;;;;;;;;;20.10;81.00;;;;;;4361390;32;42678;-83
2021/08/14 03:37:12;;;;;;;;;;;20.10;80.80;;;;;;4348120;32;45817;-84
2021/08/14 03:39:48;;;;;;;;;;;20.00;80.70;;;;;;4362342;32;20464;-84
2021/08/14 03:42:18;;;;;;;;;;;20.00;80.70;;;;;;4347764;32;45476;-84
2021/08/14 03:44:53;;;;;;;;;;;20.00;80.80;;;;;;4348073;32;46264;-84
2021/08/14 03:47:26;;;;;;;;;;;20.00;80.80;;;;;;4347938;32;43293;-84
2021/08/14 03:50:00;;;;;;;;;;;20.00;80.60;;;;;;4361177;32;44771;-84
2021/08/14 03:52:35;;;;;;;;;;;19.90;80.80;;;;;;4361213;32;44960;-84
2021/08/14 03:55:11;;;;;;;;;;;19.90;80.90;;;;;;4347886;32;43860;-84
2021/08/14 03:57:49;;;;;;;;;;;19.90;80.90;;;;;;4348073;32;45521;-84
2021/08/14 04:00:30;;;;;;;;;;;19.90;81.10;;;;;;4347372;32;42604;-84
2021/08/14 04:03:02;;;;;;;;;;;19.90;81.10;;;;;;4347267;32;45860;-84
2021/08/14 04:05:30;;;;;;;;;;;19.90;81.00;;;;;;4361119;32;44280;-84
2021/08/14 04:08:00;;;;;;;;;;;19.90;81.10;;;;;;4347743;32;43938;-83
2021/08/14 04:10:38;;;;;;;;;;;19.90;81.20;;;;;;4360804;32;19997;-83
2021/08/14 04:13:16;;;;;;;;;;;19.90;81.10;;;;;;4347609;32;45762;-84
2021/08/14 04:15:53;;;;;;;;;;;19.90;81.10;;;;;;4360859;32;44577;-84
2021/08/14 04:18:28;;;;;;;;;;;19.80;81.10;;;;;;4360999;32;43355;-84
2021/08/14 04:21:03;;;;;;;;;;;19.80;81.20;;;;;;4360933;32;43829;-84
2021/08/14 04:23:38;;;;;;;;;;;19.80;81.00;;;;;;4360722;32;44628;-84
2021/08/14 04:26:17;;;;;;;;;;;19.80;81.00;;;;;;4347463;32;43903;-84
2021/08/14 04:28:52;;;;;;;;;;;19.80;80.90;;;;;;4361133;32;43511;-84
2021/08/14 04:31:27;;;;;;;;;;;19.70;80.90;;;;;;4360933;32;44069;-84
2021/08/14 04:34:00;;;;;;;;;;;19.70;80.80;;;;;;4347977;32;43459;-83
2021/08/14 04:36:38;;;;;;;;;;;19.70;80.80;;;;;;4360055;32;45678;-84
2021/08/14 04:39:12;;;;;;;;;;;19.70;81.00;;;;;;4360245;32;43250;-84
2021/08/14 04:41:50;;;;;;;;;;;19.70;80.90;;;;;;4361424;32;19997;-84
2021/08/14 04:44:25;;;;;;;;;;;19.70;80.90;;;;;;4347141;32;45538;-84
2021/08/14 04:47:04;;;;;;;;;;;19.70;81.00;;;;;;4347201;32;44303;-84
2021/08/14 04:49:39;;;;;;;;;;;19.60;80.90;;;;;;4360581;32;43129;-84
2021/08/14 04:52:17;;;;;;;;;;;19.60;81.00;;;;;;4346565;32;45884;-84
2021/08/14 04:54:56;;;;;;;;;;;19.60;81.00;;;;;;4346503;32;43498;-85
2021/08/14 04:57:23;;;;;;;;;;;19.60;81.00;;;;;;4360476;32;43354;-85
2021/08/14 04:59:56;;;;;;;;;;;19.60;80.80;;;;;;4347124;32;45698;-85
2021/08/14 05:02:30;;;;;;;;;;;19.50;80.90;;;;;;4359965;32;45135;-84
2021/08/14 05:05:06;;;;;;;;;;;19.50;81.80;;;;;;4346990;32;45952;-85
2021/08/14 05:07:41;;;;;;;;;;;19.50;81.10;;;;;;4346744;32;44179;-85
2021/08/14 05:10:17;;;;;;;;;;;19.50;81.10;;;;;;4359717;32;44616;-85
2021/08/14 05:12:49;;;;;;;;;;;19.50;81.20;;;;;;4360638;32;19998;-85
2021/08/14 05:15:21;;;;;;;;;;;19.40;81.10;;;;;;4347016;32;44326;-85
2021/08/14 05:17:56;;;;;;;;;;;19.40;81.10;;;;;;4346825;32;42694;-85
2021/08/14 05:20:29;;;;;;;;;;;19.40;81.30;;;;;;4346788;32;42918;-85
2021/08/14 05:22:56;;;;;;;;;;;19.40;81.40;;;;;;4346346;32;44200;-85
2021/08/14 05:25:28;;;;;;;;;;;19.40;81.50;;;;;;4346621;33;43281;-84
2021/08/14 05:28:06;;;;;;;;;;;19.40;81.60;;;;;;4360004;32;44766;-85
2021/08/14 05:30:41;;;;;;;;;;;19.40;81.60;;;;;;4359586;33;44682;-85
2021/08/14 05:33:14;;;;;;;;;;;19.40;81.80;;;;;;4346663;33;43856;-85
2021/08/14 05:35:49;;;;;;;;;;;19.40;81.90;;;;;;4346675;33;44191;-85
2021/08/14 05:38:30;;;;;;;;;;;19.40;82.00;;;;;;4347163;33;44235;-85
2021/08/14 05:41:05;;;;;;;;;;;19.40;82.10;;;;;;4359639;33;42609;-84
2021/08/14 05:43:40;;;;;;;;;;;19.40;82.20;;;;;;4346989;33;20410;-85
2021/08/14 05:46:18;;;;;;;;;;;19.30;82.40;;;;;;4346966;33;43926;-84
2021/08/14 05:48:48;;;;;;;;;;;19.30;82.60;;;;;;4346338;33;44192;-84
2021/08/14 05:51:23;;;;;;;;;;;19.30;82.70;;;;;;4359491;33;43029;-85
2021/08/14 05:54:18;;;;;;;;;;;19.30;82.80;;;;;;4347891;33;42750;-84
2021/08/14 05:56:46;;;;;;;;;;;19.30;82.90;;;;;;4346782;33;45048;-85
2021/08/14 05:59:24;;;;;;;;;;;19.30;83.00;;;;;;4346415;33;42735;-85
2021/08/14 06:01:59;;;;;;;;;;;19.30;83.10;;;;;;4346210;33;45526;-85
2021/08/14 06:04:26;;;;;;;;;;;19.30;83.20;;;;;;4359382;33;42778;-85
2021/08/14 06:06:53;;;;;;;;;;;19.30;83.20;;;;;;4346000;33;43986;-85
2021/08/14 06:09:23;;;;;;;;;;;19.30;83.10;;;;;;4346303;33;42775;-85
2021/08/14 06:11:53;;;;;;;;;;;19.30;83.20;;;;;;4346122;33;44451;-85
2021/08/14 06:14:23;;;;;;;;;;;19.30;83.40;;;;;;4360135;33;20005;-85
2021/08/14 06:16:58;;;;;;;;;;;19.30;83.40;;;;;;4359796;33;44191;-85
2021/08/14 06:19:28;;;;;;;;;;;19.30;83.40;;;;;;4360037;33;43920;-85
2021/08/14 06:21:55;;;;;;;;;;;19.30;83.40;;;;;;4359608;33;42586;-85
2021/08/14 06:24:22;;;;;;;;;;;19.30;83.60;;;;;;4346410;33;44220;-85
2021/08/14 06:26:52;;;;;;;;;;;19.30;83.60;;;;;;4346480;33;44137;-85
2021/08/14 06:29:24;;;;;;;;;;;19.30;83.50;;;;;;4346304;33;43944;-85
2021/08/14 06:31:54;;;;;;;;;;;19.30;83.70;;;;;;4346227;33;42541;-85
2021/08/14 06:34:24;;;;;;;;;;;19.30;83.60;;;;;;4347664;32;44408;-85
2021/08/14 06:36:51;;;;;;;;;;;19.30;83.60;;;;;;4362445;32;44257;-85
2021/08/14 06:39:18;;;;;;;;;;;19.30;83.70;;;;;;4348989;32;44832;-85
2021/08/14 06:41:48;;;;;;;;;;;19.30;83.70;;;;;;4348801;32;42863;-85
2021/08/14 06:44:18;;;;;;;;;;;19.30;83.90;;;;;;4349003;32;43273;-85
2021/08/14 06:46:45;;;;;;;;;;;19.30;84.00;;;;;;4348797;32;44543;-85
2021/08/14 06:49:12;;;;;;;;;;;19.40;84.10;;;;;;4362084;32;44359;-85
2021/08/14 06:51:40;;;;;;;;;;;19.30;83.80;;;;;;4361914;32;43181;-85
2021/08/14 06:54:09;;;;;;;;;;;19.30;83.90;;;;;;4348587;32;44061;-85
2021/08/14 06:56:37;;;;;;;;;;;19.30;83.80;;;;;;4361524;32;44204;-85
2021/08/14 06:59:09;;;;;;;;;;;19.30;84.10;;;;;;4361540;32;44802;-85
2021/08/14 07:01:36;;;;;;;;;;;19.30;83.90;;;;;;4361790;32;44842;-85
2021/08/14 07:04:04;;;;;;;;;;;19.30;84.00;;;;;;4362050;32;43415;-86
2021/08/14 07:06:31;;;;;;;;;;;19.30;84.00;;;;;;4348633;32;44830;-87
2021/08/14 07:08:58;;;;;;;;;;;19.30;84.30;;;;;;4361840;32;43442;-85
2021/08/14 07:11:29;;;;;;;;;;;19.30;84.70;;;;;;4348491;32;42444;-84
2021/08/14 07:13:59;;;;;;;;;;;19.30;84.20;;;;;;4361846;32;43606;-84
2021/08/14 07:16:30;;;;;;;;;;;19.30;84.20;;;;;;4347941;32;45693;-85
2021/08/14 07:18:57;;;;;;;;;;;19.30;84.10;;;;;;4361743;32;45843;-85
2021/08/14 07:21:24;;;;;;;;;;;19.30;84.20;;;;;;4348389;32;44214;-85
2021/08/14 07:23:51;;;;;;;;;;;19.30;84.30;;;;;;4361550;32;44885;-87
2021/08/14 07:26:22;;;;;;;;;;;19.30;84.40;;;;;;4361072;32;45386;-85
2021/08/14 07:28:50;;;;;;;;;;;19.30;84.50;;;;;;4361486;32;44211;-85
2021/08/14 07:31:19;;;;;;;;;;;19.30;84.50;;;;;;4361194;32;43691;-86
2021/08/14 07:33:46;;;;;;;;;;;19.30;84.70;;;;;;4361036;32;42732;-85
2021/08/14 07:36:14;;;;;;;;;;;19.30;84.60;;;;;;4347622;32;43785;-85
2021/08/14 07:38:41;;;;;;;;;;;19.30;84.50;;;;;;4360971;32;42303;-84
2021/08/14 07:41:08;;;;;;;;;;;19.30;84.20;;;;;;4348105;32;45111;-86
2021/08/14 07:43:35;;;;;;;;;;;19.30;84.30;;;;;;4360998;32;45051;-85
2021/08/14 07:46:05;;;;;;;;;;;19.30;84.40;;;;;;4361247;32;45989;-85
2021/08/14 07:48:32;;;;;;;;;;;19.30;84.30;;;;;;4361297;32;44539;-85
2021/08/14 07:50:59;;;;;;;;;;;19.30;84.20;;;;;;4347995;32;44232;-85
2021/08/14 07:53:26;;;;;;;;;;;19.30;84.40;;;;;;4360895;32;42799;-85
2021/08/14 07:55:54;;;;;;;;;;;19.30;84.20;;;;;;4360743;32;43816;-84
2021/08/14 07:58:21;;;;;;;;;;;19.30;84.00;;;;;;4360784;32;42656;-84
2021/08/14 08:00:48;;;;;;;;;;;19.30;83.80;;;;;;4361005;32;43405;-86
2021/08/14 08:03:15;;;;;;;;;;;19.30;83.90;;;;;;4347246;32;44498;-85
2021/08/14 08:05:42;;;;;;;;;;;19.30;84.00;;;;;;4360978;32;44327;-85
2021/08/14 08:08:12;;;;;;;;;;;19.30;83.50;;;;;;4360634;32;44161;-85
2021/08/14 08:10:39;;;;;;;;;;;19.30;83.50;;;;;;4347737;32;44116;-86
2021/08/14 08:13:06;;;;;;;;;;;19.30;83.40;;;;;;4361135;32;44194;-85
2021/08/14 08:15:42;;;;;;;;;;;19.30;83.10;;;;;;4347036;32;44075;-85
2021/08/14 08:18:13;;;;;;;;;;;19.30;83.90;;;;;;4348288;32;19998;-85
2021/08/14 08:20:46;;;;;;;;;;;19.30;83.00;;;;;;4347142;32;43459;-85
2021/08/14 08:23:16;;;;;;;;;;;19.30;83.10;;;;;;4347613;32;45681;-85
2021/08/14 08:25:52;;;;;;;;;;;19.30;83.10;;;;;;4346993;32;42950;-85
2021/08/14 08:28:23;;;;;;;;;;;19.30;83.00;;;;;;4347705;32;43517;-84
2021/08/14 08:30:54;;;;;;;;;;;19.40;83.10;;;;;;4347168;32;43086;-84
2021/08/14 08:33:27;;;;;;;;;;;19.30;82.80;;;;;;4360886;32;43191;-86
2021/08/14 08:35:54;;;;;;;;;;;19.40;83.00;;;;;;4347511;32;44224;-85
2021/08/14 08:38:27;;;;;;;;;;;19.40;82.90;;;;;;4360081;32;44517;-85
2021/08/14 08:41:01;;;;;;;;;;;19.40;82.90;;;;;;4360977;32;26795;-82
2021/08/14 08:43:33;;;;;;;;;;;19.40;82.90;;;;;;4347435;32;33446;-85
2021/08/14 08:46:04;;;;;;;;;;;19.40;82.90;;;;;;4360503;32;44120;-84
2021/08/14 08:48:33;;;;;;;;;;;19.40;83.20;;;;;;4348122;32;20001;-84
2021/08/14 08:51:04;;;;;;;;;;;19.40;83.20;;;;;;4360423;32;43280;-85
2021/08/14 08:53:31;;;;;;;;;;;19.50;83.10;;;;;;4347104;32;43313;-85
2021/08/14 08:56:04;;;;;;;;;;;19.50;83.10;;;;;;4360083;32;43278;-84
2021/08/14 08:58:35;;;;;;;;;;;19.50;83.10;;;;;;4346754;32;44058;-85
2021/08/14 09:01:02;;;;;;;;;;;19.50;83.00;;;;;;4347224;32;44805;-84
2021/08/14 09:03:35;;;;;;;;;;;19.50;83.20;;;;;;4346891;32;43909;-85
2021/08/14 09:06:03;;;;;;;;;;;19.50;83.20;;;;;;4359837;32;44588;-85
2021/08/14 09:08:38;;;;;;;;;;;19.50;83.40;;;;;;4360225;32;42884;-85
2021/08/14 09:11:06;;;;;;;;;;;19.50;83.20;;;;;;4346650;32;43596;-85
2021/08/14 09:13:33;;;;;;;;;;;19.50;83.10;;;;;;4360096;32;43211;-86
2021/08/14 09:16:17;;;;;;;;;;;19.60;83.40;;;;;;4346821;32;42831;-84
2021/08/14 09:18:57;;;;;;;;;;;19.60;83.30;;;;;;4360845;32;20429;-86
2021/08/14 09:21:42;;;;;;;;;;;19.60;83.10;;;;;;4359927;32;43532;-85
2021/08/14 09:24:31;;;;;;;;;;;19.60;83.10;;;;;;4347404;32;43994;-86
2021/08/14 09:26:59;;;;;;;;;;;19.60;83.20;;;;;;4360258;32;43952;-86
2021/08/14 09:29:30;;;;;;;;;;;19.60;83.10;;;;;;4359665;32;43857;-84
2021/08/14 09:32:05;;;;;;;;;;;19.60;83.00;;;;;;4359590;33;42478;-84
2021/08/14 09:34:32;;;;;;;;;;;19.70;83.10;;;;;;4346386;33;43511;-84
2021/08/14 09:37:04;;;;;;;;;;;19.70;83.10;;;;;;4359996;33;44632;-86
2021/08/14 09:39:36;;;;;;;;;;;19.70;83.00;;;;;;4346697;33;43069;-84
2021/08/14 09:42:07;;;;;;;;;;;19.70;83.10;;;;;;4360137;33;42712;-87
2021/08/14 09:44:37;;;;;;;;;;;19.70;82.90;;;;;;4346417;33;44322;-85
2021/08/14 09:47:24;;;;;;;;;;;19.70;83.10;;;;;;4346339;33;44112;-85
2021/08/14 09:49:57;;;;;;;;;;;19.80;82.90;;;;;;4346384;33;44556;-81
2021/08/14 09:52:25;;;;;;;;;;;19.80;82.90;;;;;;4360045;33;43345;-88
2021/08/14 09:54:55;;;;;;;;;;;19.80;83.00;;;;;;4346895;33;43874;-88
2021/08/14 09:57:23;;;;;;;;;;;19.80;82.90;;;;;;4346283;33;45777;-87
2021/08/14 09:59:53;;;;;;;;;;;19.80;82.90;;;;;;4359819;33;43888;-86
2021/08/14 10:02:27;;;;;;;;;;;19.80;83.00;;;;;;4359383;33;43267;-85
2021/08/14 10:04:55;;;;;;;;;;;19.80;82.90;;;;;;4359966;33;42715;-88
2021/08/14 10:07:22;;;;;;;;;;;19.90;82.80;;;;;;4360100;32;45060;-88
2021/08/14 10:09:50;;;;;;;;;;;19.80;82.80;;;;;;4349193;32;42954;-88
2021/08/14 10:12:23;;;;;;;;;;;19.90;82.80;;;;;;4363011;32;44706;-84
2021/08/14 10:14:59;;;;;;;;;;;19.90;82.80;;;;;;4362372;32;43915;-81
2021/08/14 10:17:29;;;;;;;;;;;19.90;82.50;;;;;;4349231;32;43631;-83
2021/08/14 10:20:02;;;;;;;;;;;19.90;82.60;;;;;;4350206;32;20000;-86
2021/08/14 10:22:33;;;;;;;;;;;19.90;82.50;;;;;;4348966;32;42499;-87
2021/08/14 10:25:00;;;;;;;;;;;20.00;82.70;;;;;;4362577;32;43436;-88
2021/08/14 10:27:54;;;;;;;;;;;20.00;82.70;;;;;;4362050;32;42799;-86
2021/08/14 10:30:35;;;;;;;;;;;20.00;82.70;;;;;;4362168;32;42761;-88
2021/08/14 10:33:05;;;;;;;;;;;20.00;82.70;;;;;;4362590;32;45568;-80
2021/08/14 10:35:36;;;;;;;;;;;20.10;82.60;;;;;;4349060;32;42915;-88
2021/08/14 10:38:23;;;;;;;;;;;20.10;82.60;;;;;;4362018;32;44733;-86
2021/08/14 10:40:58;;;;;;;;;;;20.10;82.60;;;;;;4361609;32;44292;-88
2021/08/14 10:43:47;;;;;;;;;;;20.10;82.40;;;;;;4349202;32;43054;-86
2021/08/14 10:46:32;;;;;;;;;;;20.20;82.30;;;;;;4362148;32;44387;-84
2021/08/14 10:49:00;;;;;;;;;;;20.20;82.50;;;;;;4349218;32;42994;-88
2021/08/14 10:51:51;;;;;;;;;;;20.20;82.30;;;;;;4348615;32;43112;-83
2021/08/14 10:54:33;;;;;;;;;;;20.20;82.30;;;;;;4348890;32;43036;-87
2021/08/14 10:57:09;;;;;;;;;;;20.30;82.40;;;;;;4348354;32;43422;-84
2021/08/14 10:59:37;;;;;;;;;;;20.30;82.40;;;;;;4362069;32;45058;-87
2021/08/14 11:02:10;;;;;;;;;;;20.40;82.50;;;;;;4345979;33;45345;-88
2021/08/14 11:04:47;;;;;;;;;;;20.40;82.50;;;;;;4347170;32;44305;-86
2021/08/14 11:07:20;;;;;;;;;;;20.40;82.60;;;;;;4347147;33;45685;-87
2021/08/14 11:09:53;;;;;;;;;;;20.40;82.40;;;;;;4345811;33;42487;-84
2021/08/14 11:12:29;;;;;;;;;;;20.40;82.30;;;;;;4346110;33;44736;-86
2021/08/14 11:15:16;;;;;;;;;;;20.40;82.50;;;;;;4346016;33;44245;-87
2021/08/14 11:17:47;;;;;;;;;;;20.50;82.50;;;;;;4345873;33;44444;-86
2021/08/14 11:20:20;;;;;;;;;;;20.50;82.50;;;;;;4347627;33;19993;-89
2021/08/14 11:22:48;;;;;;;;;;;20.60;82.60;;;;;;4345637;33;42966;-87
2021/08/14 11:25:33;;;;;;;;;;;20.50;82.50;;;;;;4346971;33;45703;-88
2021/08/14 11:28:03;;;;;;;;;;;20.60;82.50;;;;;;4346925;33;43445;-86
2021/08/14 11:30:32;;;;;;;;;;;20.60;82.40;;;;;;4345175;33;44440;-86
2021/08/14 11:33:04;;;;;;;;;;;20.60;82.30;;;;;;4346232;32;44219;-88
2021/08/14 11:35:32;;;;;;;;;;;20.60;82.40;;;;;;4345781;33;44251;-86
2021/08/14 11:38:03;;;;;;;;;;;20.70;82.40;;;;;;4345639;33;43840;-88
2021/08/14 11:40:39;;;;;;;;;;;20.70;82.50;;;;;;4346775;33;44043;-87
2021/08/14 11:43:08;;;;;;;;;;;20.70;82.50;;;;;;4345665;33;45757;-87
2021/08/14 11:45:43;;;;;;;;;;;20.70;82.40;;;;;;4346589;33;45106;-86
2021/08/14 11:48:21;;;;;;;;;;;20.80;82.40;;;;;;4346383;33;42306;-88
2021/08/14 11:50:48;;;;;;;;;;;20.80;82.50;;;;;;4347539;33;20401;-88
2021/08/14 11:53:28;;;;;;;;;;;20.80;82.50;;;;;;4345468;33;44078;-85
2021/08/14 11:56:10;;;;;;;;;;;20.80;82.60;;;;;;4345047;33;43045;-83
2021/08/14 11:58:37;;;;;;;;;;;20.90;82.30;;;;;;4346235;33;45121;-82
2021/08/14 12:01:07;;;;;;;;;;;20.90;82.20;;;;;;4345425;33;43482;-84
2021/08/14 12:03:37;;;;;;;;;;;20.90;81.80;;;;;;4345146;32;44187;-87
2021/08/14 12:06:15;;;;;;;;;;;21.00;82.30;;;;;;4346226;33;44189;-86
2021/08/14 12:08:53;;;;;;;;;;;21.00;82.20;;;;;;4345191;33;45648;-86
2021/08/14 12:11:32;;;;;;;;;;;21.00;82.30;;;;;;4345267;33;45272;-87
2021/08/14 12:14:19;;;;;;;;;;;21.10;81.80;;;;;;4345111;33;46087;-86
2021/08/14 12:17:02;;;;;;;;;;;21.10;81.80;;;;;;4346255;32;45141;-87
2021/08/14 12:19:32;;;;;;;;;;;21.10;81.80;;;;;;4344968;33;42903;-88
2021/08/14 12:22:06;;;;;;;;;;;21.20;82.30;;;;;;4344979;33;43188;-88
2021/08/14 12:24:41;;;;;;;;;;;21.20;82.30;;;;;;4345128;33;43343;-87
2021/08/14 12:27:30;;;;;;;;;;;21.20;82.20;;;;;;4346036;33;43421;-86
2021/08/14 12:30:19;;;;;;;;;;;21.30;82.30;;;;;;4344969;33;44020;-87
2021/08/14 12:32:57;;;;;;;;;;;21.30;82.30;;;;;;4344263;33;44144;-88
2021/08/14 12:35:32;;;;;;;;;;;21.30;82.20;;;;;;4344704;33;44440;-86
2021/08/14 12:38:16;;;;;;;;;;;21.30;82.40;;;;;;4344819;33;43341;-88
2021/08/14 12:40:54;;;;;;;;;;;21.30;82.40;;;;;;4345782;33;45198;-86
2021/08/14 12:43:29;;;;;;;;;;;21.40;82.00;;;;;;4344661;33;45103;-86
2021/08/14 12:46:18;;;;;;;;;;;21.40;82.50;;;;;;4345827;33;42721;-88
2021/08/14 12:49:06;;;;;;;;;;;21.40;82.50;;;;;;4345900;33;45872;-88
2021/08/14 12:51:33;;;;;;;;;;;21.50;82.50;;;;;;4345878;33;44326;-88
2021/08/14 12:54:14;;;;;;;;;;;21.50;82.50;;;;;;4344648;33;45719;-86
2021/08/14 12:56:51;;;;;;;;;;;21.50;82.70;;;;;;4344624;33;44424;-86
2021/08/14 12:59:30;;;;;;;;;;;21.60;82.80;;;;;;4344603;33;43187;-87
2021/08/14 13:02:06;;;;;;;;;;;21.60;82.80;;;;;;4346111;32;43478;-86
2021/08/14 13:04:44;;;;;;;;;;;21.60;82.80;;;;;;4346993;32;45149;-87
2021/08/14 13:07:22;;;;;;;;;;;21.60;83.00;;;;;;4360434;32;42530;-88
2021/08/14 13:09:58;;;;;;;;;;;21.70;83.10;;;;;;4346575;32;45479;-88
2021/08/14 13:12:36;;;;;;;;;;;21.70;83.00;;;;;;4347015;32;45092;-90
2021/08/14 13:15:03;;;;;;;;;;;21.80;83.30;;;;;;4360513;32;43300;-88
2021/08/14 13:17:38;;;;;;;;;;;21.80;83.20;;;;;;4347312;32;44677;-88
2021/08/14 13:20:16;;;;;;;;;;;21.80;83.10;;;;;;4347007;32;44054;-87
2021/08/14 13:22:54;;;;;;;;;;;21.90;83.30;;;;;;4346790;32;45476;-89
2021/08/14 13:25:29;;;;;;;;;;;21.90;83.00;;;;;;4361430;32;20016;-87
2021/08/14 13:28:05;;;;;;;;;;;22.00;83.30;;;;;;4347123;32;45831;-89
2021/08/14 13:30:42;;;;;;;;;;;22.00;83.30;;;;;;4347275;33;43970;-88
2021/08/14 13:33:18;;;;;;;;;;;22.00;82.90;;;;;;4346655;33;45180;-88
2021/08/14 13:35:53;;;;;;;;;;;22.10;83.40;;;;;;4360119;33;45796;-88
2021/08/14 13:38:31;;;;;;;;;;;22.10;83.40;;;;;;4347167;33;43751;-88
2021/08/14 13:41:04;;;;;;;;;;;22.10;83.20;;;;;;4347414;33;43898;-86
2021/08/14 13:43:39;;;;;;;;;;;22.20;83.40;;;;;;4349262;32;46032;-86
2021/08/14 13:46:17;;;;;;;;;;;22.20;83.40;;;;;;4349933;32;44760;-89
2021/08/14 13:48:51;;;;;;;;;;;22.30;83.50;;;;;;4349188;32;45780;-87
2021/08/14 13:51:29;;;;;;;;;;;22.30;83.50;;;;;;4349470;32;44550;-86
2021/08/14 13:54:06;;;;;;;;;;;22.40;83.80;;;;;;4349287;32;42519;-87
2021/08/14 13:56:44;;;;;;;;;;;22.40;83.60;;;;;;4350630;32;20031;-89
2021/08/14 13:59:19;;;;;;;;;;;22.40;83.60;;;;;;4349163;32;45458;-86
2021/08/14 14:01:55;;;;;;;;;;;22.50;83.80;;;;;;4349423;32;45738;-86
2021/08/14 14:04:31;;;;;;;;;;;22.50;83.90;;;;;;4349674;32;46033;-87
2021/08/14 14:06:58;;;;;;;;;;;22.60;84.10;;;;;;4349432;32;45495;-90
2021/08/14 14:09:34;;;;;;;;;;;22.60;84.20;;;;;;4349777;32;44101;-87
2021/08/14 14:12:12;;;;;;;;;;;22.60;84.20;;;;;;4348958;32;44682;-84
2021/08/14 14:14:51;;;;;;;;;;;22.70;84.00;;;;;;4362657;32;45654;-87
2021/08/14 14:17:29;;;;;;;;;;;22.70;84.00;;;;;;4362726;32;42723;-87
2021/08/14 14:20:03;;;;;;;;;;;22.70;84.10;;;;;;4362572;32;45190;-86
2021/08/14 14:22:40;;;;;;;;;;;22.80;84.20;;;;;;4349044;32;43455;-90
2021/08/14 14:25:18;;;;;;;;;;;22.80;84.20;;;;;;4362637;32;44771;-89
2021/08/14 14:27:56;;;;;;;;;;;22.90;84.40;;;;;;4349930;32;20005;-87
2021/08/14 14:30:34;;;;;;;;;;;22.90;84.40;;;;;;4362427;32;44136;-87
2021/08/14 14:33:15;;;;;;;;;;;22.90;84.50;;;;;;4349153;32;43463;-86
2021/08/14 14:35:43;;;;;;;;;;;23.00;84.50;;;;;;4348954;32;43081;-86
2021/08/14 14:38:25;;;;;;;;;;;23.00;84.50;;;;;;4349016;32;45307;-86
2021/08/14 14:40:57;;;;;;;;;;;23.10;84.60;;;;;;4349038;32;44797;-88
2021/08/14 14:43:38;;;;;;;;;;;23.10;84.50;;;;;;4349365;32;43608;-87
2021/08/14 14:46:16;;;;;;;;;;;23.10;84.50;;;;;;4349053;32;43170;-86
2021/08/14 14:48:49;;;;;;;;;;;23.20;84.50;;;;;;4348500;32;44272;-88
2021/08/14 14:51:24;;;;;;;;;;;23.20;84.60;;;;;;4348702;32;45386;-87
2021/08/14 14:54:03;;;;;;;;;;;23.30;84.20;;;;;;4348611;32;44797;-86